Time;durP1;ratioP1;P1;durP2;ratioP2;P2;SDS_P1;SDS_P2;PMS_P1;PMS_P2;Temp;Humidity;BMP_temperature;BMP_pressure;BME280_temperature;BME280_humidity;BME280_pressure;Samples;Min_cycle;Max_cycle;Signal;HPM_P1;HPM_P2
2021/09/11 00:00:19;;;;;;;4.95;1.92;;;17.60;99.90;;;;;;5135802;27;20027;-76
2021/09/11 00:02:46;;;;;;;3.90;1.65;;;17.50;99.90;;;;;;5117342;27;20019;-75
2021/09/11 00:05:12;;;;;;;5.00;1.75;;;17.50;99.90;;;;;;5117375;27;20029;-76
2021/09/11 00:07:38;;;;;;;8.02;2.22;;;17.40;99.90;;;;;;5135891;27;20055;-75
2021/09/11 00:10:06;;;;;;;4.45;1.85;;;17.40;99.90;;;;;;5117396;27;20361;-75
2021/09/11 00:12:32;;;;;;;6.07;1.92;;;17.30;99.90;;;;;;5117215;27;20062;-76
2021/09/11 00:14:58;;;;;;;7.15;1.80;;;17.30;99.90;;;;;;5135414;27;20031;-75
2021/09/11 00:17:23;;;;;;;3.80;1.42;;;17.20;99.90;;;;;;5135493;27;20110;-76
2021/09/11 00:19:49;;;;;;;3.65;2.05;;;17.20;99.90;;;;;;5135738;27;20016;-75
2021/09/11 00:22:14;;;;;;;6.60;1.75;;;17.20;99.90;;;;;;5135712;27;20395;-76
2021/09/11 00:24:40;;;;;;;4.32;1.98;;;17.10;99.90;;;;;;5135546;27;20026;-75
2021/09/11 00:27:05;;;;;;;5.65;1.73;;;17.10;99.90;;;;;;5135500;27;20023;-76
2021/09/11 00:29:32;;;;;;;5.10;1.70;;;17.00;99.90;;;;;;5117025;27;20023;-76
2021/09/11 00:31:58;;;;;;;4.72;2.25;;;17.10;99.90;;;;;;5135757;27;20122;-76
2021/09/11 00:34:24;;;;;;;7.60;2.17;;;17.00;99.90;;;;;;5134897;27;20098;-76
2021/09/11 00:36:49;;;;;;;3.45;1.98;;;17.00;99.90;;;;;;5135517;27;20062;-76
2021/09/11 00:39:15;;;;;;;5.50;2.83;;;17.00;99.90;;;;;;5116500;27;20034;-76
2021/09/11 00:41:41;;;;;;;7.35;2.38;;;17.00;99.90;;;;;;5134913;27;20019;-76
2021/09/11 00:44:07;;;;;;;4.90;1.73;;;16.90;99.90;;;;;;5134856;27;20022;-76
2021/09/11 00:46:33;;;;;;;9.00;1.98;;;16.80;99.90;;;;;;5134675;27;20023;-76
2021/09/11 00:48:59;;;;;;;10.55;2.65;;;16.80;99.90;;;;;;5134678;27;20054;-76
2021/09/11 00:51:26;;;;;;;7.85;2.30;;;16.80;99.90;;;;;;5134387;27;20024;-76
2021/09/11 00:53:53;;;;;;;8.93;2.47;;;16.70;99.90;;;;;;5116247;27;20027;-76
2021/09/11 00:56:19;;;;;;;8.50;2.33;;;16.60;99.90;;;;;;5134391;27;20023;-76
2021/09/11 00:58:46;;;;;;;7.72;2.63;;;16.60;99.90;;;;;;5116192;27;20022;-76
2021/09/11 01:01:11;;;;;;;9.65;4.35;;;16.60;99.90;;;;;;5134488;27;20083;-76
2021/09/11 01:03:37;;;;;;;6.30;2.72;;;16.50;99.90;;;;;;5116328;27;20454;-77
2021/09/11 01:06:03;;;;;;;8.07;2.83;;;16.50;99.90;;;;;;5116324;27;20026;-74
2021/09/11 01:08:30;;;;;;;6.25;3.17;;;16.50;99.90;;;;;;5134575;27;20027;-76
2021/09/11 01:10:57;;;;;;;10.05;3.90;;;16.50;99.90;;;;;;5116289;27;20030;-76
2021/09/11 01:13:22;;;;;;;6.10;3.03;;;16.60;99.90;;;;;;5134935;27;20019;-75
2021/09/11 01:15:48;;;;;;;10.38;3.63;;;16.60;99.90;;;;;;5134598;27;20015;-75
2021/09/11 01:18:14;;;;;;;11.27;4.15;;;16.60;99.90;;;;;;5134413;27;20084;-76
2021/09/11 01:20:41;;;;;;;7.50;3.58;;;16.70;99.90;;;;;;5134552;27;20094;-76
2021/09/11 01:23:08;;;;;;;9.80;3.97;;;16.60;99.90;;;;;;5135014;27;20027;-76
2021/09/11 01:25:34;;;;;;;10.95;3.88;;;16.60;99.90;;;;;;5134317;27;20043;-76
2021/09/11 01:27:59;;;;;;;8.23;4.15;;;16.60;99.90;;;;;;5134501;28;20064;-76
2021/09/11 01:30:25;;;;;;;9.88;4.43;;;16.70;99.90;;;;;;5134487;28;20068;-75
2021/09/11 01:32:51;;;;;;;11.52;4.72;;;16.60;99.90;;;;;;5116142;28;20023;-75
2021/09/11 01:35:18;;;;;;;12.63;4.30;;;16.70;99.90;;;;;;5134658;28;20499;-75
2021/09/11 01:37:44;;;;;;;11.82;4.18;;;16.70;99.90;;;;;;5134056;28;20027;-75
2021/09/11 01:40:10;;;;;;;16.50;4.70;;;16.70;99.90;;;;;;5134383;28;20020;-75
2021/09/11 01:42:37;;;;;;;11.32;4.22;;;16.70;99.90;;;;;;5134047;28;20031;-75
2021/09/11 01:45:14;;;;;;;13.90;4.85;;;16.70;99.90;;;;;;5115585;28;20018;-75
2021/09/11 01:47:41;;;;;;;29.50;4.78;;;16.70;99.90;;;;;;5134107;28;20067;-75
2021/09/11 01:50:09;;;;;;;11.45;4.28;;;16.60;99.90;;;;;;5134024;28;20514;-75
2021/09/11 01:52:35;;;;;;;11.60;4.33;;;16.60;99.90;;;;;;5115614;28;20424;-75
2021/09/11 01:55:01;;;;;;;11.80;4.63;;;16.60;99.90;;;;;;5133917;28;20038;-74
2021/09/11 01:57:27;;;;;;;9.63;4.20;;;16.80;99.90;;;;;;5133892;28;20352;-75
2021/09/11 01:59:52;;;;;;;10.57;4.07;;;16.60;99.90;;;;;;5134211;28;20072;-75
2021/09/11 02:02:18;;;;;;;9.40;3.90;;;16.50;99.90;;;;;;5136354;27;20098;-75
2021/09/11 02:04:43;;;;;;;7.82;3.30;;;16.50;99.90;;;;;;5119495;27;20047;-75
2021/09/11 02:07:09;;;;;;;10.73;3.40;;;16.40;99.90;;;;;;5138187;27;20035;-75
2021/09/11 02:09:36;;;;;;;10.63;3.55;;;16.30;99.90;;;;;;5137880;27;20025;-75
2021/09/11 02:12:02;;;;;;;10.23;3.15;;;16.30;99.90;;;;;;5137773;27;20027;-75
2021/09/11 02:14:27;;;;;;;6.70;3.20;;;16.30;99.90;;;;;;5137817;27;20038;-76
2021/09/11 02:16:53;;;;;;;11.45;3.10;;;16.30;99.90;;;;;;5137823;27;20503;-75
2021/09/11 02:19:19;;;;;;;9.40;3.78;;;16.30;99.90;;;;;;5119550;27;20066;-75
2021/09/11 02:21:44;;;;;;;7.63;3.15;;;16.30;99.90;;;;;;5137841;27;20429;-76
2021/09/11 02:24:10;;;;;;;9.63;3.47;;;16.40;99.90;;;;;;5119470;27;20106;-75
2021/09/11 02:26:36;;;;;;;8.55;3.55;;;16.30;99.90;;;;;;5137891;27;20046;-76
2021/09/11 02:29:05;;;;;;;7.25;3.10;;;16.30;99.90;;;;;;5119263;27;20023;-75
2021/09/11 02:31:31;;;;;;;7.18;2.97;;;16.30;99.90;;;;;;5143265;22;20055;-76
2021/09/11 02:33:57;;;;;;;8.48;3.55;;;16.30;99.90;;;;;;5095342;28;20024;-75
2021/09/11 02:36:22;;;;;;;8.57;3.80;;;16.30;99.90;;;;;;5096593;28;20074;-75
2021/09/11 02:38:48;;;;;;;11.75;3.28;;;16.30;99.90;;;;;;5096582;28;20077;-76
2021/09/11 02:41:14;;;;;;;8.23;3.17;;;16.30;99.90;;;;;;5095299;28;20381;-74
2021/09/11 02:43:39;;;;;;;11.40;3.67;;;16.40;99.90;;;;;;5096556;28;20026;-75
2021/09/11 02:46:05;;;;;;;11.20;3.55;;;16.40;99.90;;;;;;5096703;28;20024;-76
2021/09/11 02:48:32;;;;;;;11.63;3.97;;;16.50;99.90;;;;;;5095370;28;20024;-74
2021/09/11 02:50:58;;;;;;;7.38;3.85;;;16.50;99.90;;;;;;5094786;28;20016;-76
2021/09/11 02:53:24;;;;;;;6.38;3.33;;;16.50;99.90;;;;;;5096348;28;20469;-74
2021/09/11 02:55:49;;;;;;;6.20;3.03;;;16.60;99.90;;;;;;5095060;28;20026;-75
2021/09/11 02:58:17;;;;;;;13.00;4.47;;;16.50;99.90;;;;;;5096058;28;20032;-75
2021/09/11 03:00:43;;;;;;;7.43;3.17;;;16.60;99.90;;;;;;5096065;28;20069;-74
2021/09/11 03:03:08;;;;;;;14.43;4.38;;;16.60;99.90;;;;;;5094800;28;20426;-75
2021/09/11 03:05:34;;;;;;;11.02;4.47;;;16.70;99.90;;;;;;5094041;28;20477;-75
2021/09/11 03:08:00;;;;;;;9.15;4.25;;;16.70;99.90;;;;;;5095821;28;20035;-76
2021/09/11 03:10:25;;;;;;;9.07;4.05;;;16.70;99.90;;;;;;5094641;28;20028;-76
2021/09/11 03:12:51;;;;;;;11.40;4.22;;;16.70;99.90;;;;;;5093382;28;20419;-76
2021/09/11 03:15:16;;;;;;;13.77;4.88;;;16.70;99.90;;;;;;5095604;28;20023;-76
2021/09/11 03:17:42;;;;;;;11.82;4.68;;;16.70;99.90;;;;;;5095514;28;20027;-76
2021/09/11 03:20:09;;;;;;;12.02;4.43;;;16.80;99.90;;;;;;5096070;28;20093;-75
2021/09/11 03:22:35;;;;;;;9.77;4.63;;;16.80;99.90;;;;;;5096069;28;20446;-75
2021/09/11 03:25:02;;;;;;;12.20;5.40;;;16.80;99.90;;;;;;5095307;28;20020;-76
2021/09/11 03:27:27;;;;;;;11.98;5.18;;;16.80;99.90;;;;;;5095692;28;20024;-76
2021/09/11 03:29:53;;;;;;;13.63;4.70;;;16.80;99.90;;;;;;5095319;28;20062;-76
2021/09/11 03:32:19;;;;;;;11.65;5.03;;;16.80;99.90;;;;;;5095187;28;20118;-76
2021/09/11 03:34:44;;;;;;;15.48;5.30;;;16.90;99.90;;;;;;5095185;28;20054;-76
2021/09/11 03:37:11;;;;;;;11.57;4.68;;;16.90;99.90;;;;;;5093917;28;20080;-76
2021/09/11 03:39:36;;;;;;;13.60;5.65;;;16.90;99.90;;;;;;5095186;28;20023;-76
2021/09/11 03:42:02;;;;;;;16.10;6.57;;;16.90;99.90;;;;;;5095130;28;20024;-76
2021/09/11 03:44:28;;;;;;;13.35;6.00;;;16.90;99.90;;;;;;5093658;28;20020;-76
2021/09/11 03:46:54;;;;;;;14.27;7.65;;;16.90;99.90;;;;;;5095152;28;20028;-76
2021/09/11 03:49:19;;;;;;;11.57;6.00;;;16.90;99.90;;;;;;5095452;28;20385;-75
2021/09/11 03:51:45;;;;;;;14.20;6.25;;;17.00;99.90;;;;;;5095513;28;20020;-75
2021/09/11 03:54:10;;;;;;;11.73;6.72;;;17.00;99.90;;;;;;5095367;28;20107;-75
2021/09/11 03:56:39;;;;;;;13.00;6.18;;;17.00;99.90;;;;;;5094806;28;20103;-76
2021/09/11 03:59:06;;;;;;;14.35;6.32;;;17.00;99.90;;;;;;5095577;28;20111;-75
2021/09/11 04:01:31;;;;;;;14.07;6.22;;;17.00;99.90;;;;;;5093637;28;20028;-74
2021/09/11 04:03:57;;;;;;;20.27;6.00;;;17.00;99.90;;;;;;5109361;22;20434;-75
2021/09/11 04:06:23;;;;;;;15.98;6.78;;;17.00;99.90;;;;;;5115312;28;20369;-75
2021/09/11 04:08:49;;;;;;;16.98;6.15;;;17.00;99.90;;;;;;5096984;28;20111;-75
2021/09/11 04:11:15;;;;;;;15.20;7.20;;;17.00;99.90;;;;;;5115450;28;20129;-76
2021/09/11 04:13:41;;;;;;;13.93;6.45;;;17.00;99.90;;;;;;5115084;28;20024;-75
2021/09/11 04:16:06;;;;;;;14.40;6.68;;;17.00;99.90;;;;;;5096569;28;20084;-75
2021/09/11 04:18:32;;;;;;;19.65;6.95;;;17.00;99.90;;;;;;5096700;28;20497;-76
2021/09/11 04:20:58;;;;;;;13.45;5.90;;;17.00;99.90;;;;;;5115083;22;20139;-74
2021/09/11 04:23:23;;;;;;;17.73;6.40;;;17.20;99.90;;;;;;5094595;28;20496;-75
2021/09/11 04:25:49;;;;;;;13.65;6.30;;;17.00;99.90;;;;;;5094220;28;20021;-76
2021/09/11 04:28:15;;;;;;;21.40;7.13;;;17.00;99.90;;;;;;5093203;28;20047;-74
2021/09/11 04:30:40;;;;;;;14.07;6.28;;;17.00;99.90;;;;;;5094324;28;20067;-75
2021/09/11 04:33:06;;;;;;;15.00;6.80;;;17.00;99.90;;;;;;5092394;28;20020;-75
2021/09/11 04:35:33;;;;;;;12.57;6.43;;;17.00;99.90;;;;;;5094246;28;20091;-74
2021/09/11 04:37:59;;;;;;;15.57;6.47;;;17.00;99.90;;;;;;5092940;28;20026;-75
2021/09/11 04:40:25;;;;;;;12.70;6.65;;;17.00;99.90;;;;;;5092918;28;20393;-76
2021/09/11 04:42:51;;;;;;;17.08;6.47;;;17.10;99.90;;;;;;5094256;28;20028;-75
2021/09/11 04:45:17;;;;;;;12.27;6.40;;;17.00;99.90;;;;;;5092820;28;20024;-74
2021/09/11 04:47:42;;;;;;;17.42;5.95;;;17.10;99.90;;;;;;5094176;28;20099;-75
2021/09/11 04:50:08;;;;;;;20.33;6.63;;;17.10;99.90;;;;;;5094748;28;20504;-75
2021/09/11 04:52:34;;;;;;;21.20;7.78;;;17.10;99.90;;;;;;5093964;28;20024;-76
2021/09/11 04:55:00;;;;;;;16.23;6.20;;;17.10;99.90;;;;;;5093940;28;20031;-75
2021/09/11 04:57:26;;;;;;;16.92;6.38;;;17.10;99.90;;;;;;5093671;28;20496;-74
2021/09/11 04:59:51;;;;;;;14.55;6.65;;;17.10;99.90;;;;;;5093157;28;20020;-74
2021/09/11 05:02:17;;;;;;;13.63;5.45;;;17.10;99.90;;;;;;5092640;28;20420;-76
2021/09/11 05:04:42;;;;;;;14.27;6.28;;;17.10;99.90;;;;;;5093720;28;20020;-75
2021/09/11 05:07:10;;;;;;;16.52;6.78;;;17.10;99.90;;;;;;5093842;28;20384;-75
2021/09/11 05:09:36;;;;;;;25.37;6.83;;;17.10;99.90;;;;;;5093910;28;20362;-75
2021/09/11 05:12:04;;;;;;;18.88;7.10;;;17.10;99.90;;;;;;5092336;28;20024;-74
2021/09/11 05:14:31;;;;;;;13.00;6.50;;;17.10;99.90;;;;;;5093611;28;20552;-74
2021/09/11 05:16:57;;;;;;;14.10;6.43;;;17.10;99.90;;;;;;5092224;28;20424;-75
2021/09/11 05:19:23;;;;;;;16.55;7.07;;;17.20;99.90;;;;;;5092277;28;20077;-75
2021/09/11 05:21:49;;;;;;;17.75;7.05;;;17.20;99.90;;;;;;5094101;28;20446;-75
2021/09/11 05:24:17;;;;;;;15.52;6.57;;;17.10;99.90;;;;;;5093864;28;20020;-75
2021/09/11 05:26:43;;;;;;;;;;;17.10;99.90;;;;;;5092383;28;20032;-75
2021/09/11 05:29:09;;;;;;;14.93;5.97;;;17.10;99.90;;;;;;5093323;28;20016;-75
2021/09/11 05:31:35;;;;;;;14.27;6.28;;;17.10;99.90;;;;;;5092183;28;20016;-74
2021/09/11 05:34:00;;;;;;;14.43;6.25;;;17.20;99.90;;;;;;5093311;28;20103;-74
2021/09/11 05:36:26;;;;;;;15.23;5.68;;;18.20;99.90;;;;;;5094181;28;20039;-75
2021/09/11 05:38:52;;;;;;;15.73;6.85;;;17.20;99.90;;;;;;5096236;28;20139;-75
2021/09/11 05:41:17;;;;;;;18.17;7.38;;;17.20;99.90;;;;;;5097793;28;20074;-74
2021/09/11 05:43:43;;;;;;;15.98;7.63;;;17.20;99.90;;;;;;5097339;28;20034;-75
2021/09/11 05:46:09;;;;;;;13.30;6.57;;;17.20;99.90;;;;;;5097423;28;20043;-74
2021/09/11 05:48:34;;;;;;;18.25;6.90;;;17.20;99.90;;;;;;5097513;28;20009;-75
2021/09/11 05:51:01;;;;;;;13.43;5.90;;;17.30;99.90;;;;;;5097251;28;20016;-74
2021/09/11 05:53:27;;;;;;;18.70;6.78;;;17.30;99.90;;;;;;5097213;28;20024;-74
2021/09/11 05:55:52;;;;;;;16.80;7.30;;;17.30;99.90;;;;;;5097066;28;20538;-74
2021/09/11 05:58:18;;;;;;;21.30;7.65;;;17.30;99.90;;;;;;5097113;28;20028;-74
2021/09/11 06:00:43;;;;;;;22.02;9.05;;;17.30;99.90;;;;;;5097102;28;20066;-74
2021/09/11 06:03:09;;;;;;;14.93;6.70;;;17.30;99.90;;;;;;5095832;28;20065;-74
2021/09/11 06:05:35;;;;;;;17.73;7.80;;;17.30;99.90;;;;;;5096750;28;20446;-74
2021/09/11 06:08:00;;;;;;;19.92;8.13;;;17.30;99.90;;;;;;5097678;28;20063;-74
2021/09/11 06:10:26;;;;;;;15.80;6.82;;;17.40;99.90;;;;;;5095914;28;20051;-75
2021/09/11 06:12:51;;;;;;;13.45;7.38;;;17.30;99.90;;;;;;5097074;28;20055;-74
2021/09/11 06:15:18;;;;;;;16.00;7.85;;;17.40;99.90;;;;;;5096921;28;20024;-75
2021/09/11 06:17:43;;;;;;;15.40;7.43;;;17.50;99.90;;;;;;5096726;28;20028;-74
2021/09/11 06:20:10;;;;;;;20.05;6.88;;;17.40;99.90;;;;;;5096655;28;20107;-75
2021/09/11 06:22:36;;;;;;;15.35;6.43;;;17.40;99.90;;;;;;5095429;28;20020;-75
2021/09/11 06:25:03;;;;;;;15.52;6.25;;;17.50;99.90;;;;;;5097211;28;20105;-74
2021/09/11 06:27:28;;;;;;;16.35;6.95;;;17.40;99.90;;;;;;5096670;28;20534;-76
2021/09/11 06:29:54;;;;;;;14.52;6.88;;;17.40;99.90;;;;;;5111657;22;20039;-75
2021/09/11 06:32:20;;;;;;;18.02;6.72;;;17.40;99.90;;;;;;5117591;28;20019;-75
2021/09/11 06:34:45;;;;;;;12.32;6.05;;;17.50;99.90;;;;;;5098830;28;20020;-76
2021/09/11 06:37:11;;;;;;;16.52;7.20;;;17.50;99.90;;;;;;5116886;28;20506;-76
2021/09/11 06:39:36;;;;;;;23.35;6.70;;;17.50;99.90;;;;;;5117006;28;20024;-75
2021/09/11 06:42:02;;;;;;;19.17;6.80;;;17.50;99.90;;;;;;5116892;28;20015;-75
2021/09/11 06:44:28;;;;;;;14.73;5.95;;;17.60;99.90;;;;;;5117394;28;20028;-74
2021/09/11 06:46:54;;;;;;;14.98;6.78;;;17.60;99.90;;;;;;5116701;28;20503;-76
2021/09/11 06:49:20;;;;;;;15.23;6.22;;;17.60;99.90;;;;;;5116569;28;20054;-74
2021/09/11 06:51:45;;;;;;;11.95;5.30;;;17.60;99.90;;;;;;5116681;28;20484;-75
2021/09/11 06:54:11;;;;;;;14.45;6.40;;;17.60;99.90;;;;;;5098045;28;20031;-76
2021/09/11 06:56:37;;;;;;;12.05;5.80;;;17.60;99.90;;;;;;5098482;28;20110;-75
2021/09/11 06:59:03;;;;;;;14.90;5.50;;;17.70;99.90;;;;;;5124453;22;20044;-76
2021/09/11 07:01:29;;;;;;;17.90;7.53;;;17.70;99.90;;;;;;5094813;28;20134;-75
2021/09/11 07:03:55;;;;;;;15.40;5.65;;;17.80;99.90;;;;;;5094841;28;20024;-75
2021/09/11 07:06:21;;;;;;;16.77;6.50;;;17.70;99.90;;;;;;5096317;28;20077;-75
2021/09/11 07:08:47;;;;;;;13.32;5.25;;;17.80;99.90;;;;;;5094563;28;20021;-74
2021/09/11 07:11:14;;;;;;;13.95;6.35;;;17.80;99.90;;;;;;5095797;28;20103;-74
2021/09/11 07:13:40;;;;;;;13.07;6.03;;;17.90;99.90;;;;;;5110713;22;20063;-75
2021/09/11 07:16:07;;;;;;;12.70;5.60;;;18.00;99.90;;;;;;5116268;28;20055;-75
2021/09/11 07:18:34;;;;;;;15.07;5.57;;;18.00;99.90;;;;;;5116025;28;20089;-75
2021/09/11 07:21:00;;;;;;;15.88;5.93;;;18.00;99.90;;;;;;5116082;28;20043;-76
2021/09/11 07:23:26;;;;;;;14.13;5.88;;;18.10;99.90;;;;;;5097870;28;20019;-74
2021/09/11 07:25:52;;;;;;;12.13;5.57;;;18.10;99.90;;;;;;5116065;28;20111;-73
2021/09/11 07:28:17;;;;;;;13.10;5.72;;;18.10;99.90;;;;;;5115854;28;20055;-74
2021/09/11 07:30:43;;;;;;;10.80;5.50;;;18.10;99.90;;;;;;5097438;28;20023;-73
2021/09/11 07:33:08;;;;;;;14.20;6.25;;;18.20;99.90;;;;;;5097414;28;20485;-73
2021/09/11 07:35:34;;;;;;;11.65;5.07;;;18.20;99.90;;;;;;5115635;28;20047;-74
2021/09/11 07:38:00;;;;;;;13.10;5.38;;;18.30;99.90;;;;;;5097320;28;20061;-74
2021/09/11 07:40:25;;;;;;;12.98;5.85;;;18.30;99.90;;;;;;5115574;28;20024;-74
2021/09/11 07:42:51;;;;;;;13.30;5.68;;;18.40;99.90;;;;;;5097260;28;20114;-73
2021/09/11 07:45:17;;;;;;;11.68;5.82;;;18.40;99.90;;;;;;5115477;28;20027;-74
2021/09/11 07:47:42;;;;;;;13.20;5.57;;;18.60;99.90;;;;;;5115362;28;20099;-74
2021/09/11 07:50:10;;;;;;;10.60;4.97;;;18.60;99.90;;;;;;5115363;28;20055;-74
2021/09/11 07:52:39;;;;;;;10.80;4.80;;;18.60;99.90;;;;;;5115648;28;20020;-74
2021/09/11 07:55:06;;;;;;;11.30;5.80;;;18.70;99.90;;;;;;5096911;28;20126;-74
2021/09/11 07:57:31;;;;;;;9.98;4.90;;;18.80;99.90;;;;;;5097104;28;20492;-75
2021/09/11 07:59:57;;;;;;;12.95;5.18;;;18.80;99.90;;;;;;5096532;28;20016;-75
2021/09/11 08:02:23;;;;;;;14.02;5.18;;;18.90;99.90;;;;;;5076191;22;20055;-75
2021/09/11 08:04:48;;;;;;;11.95;5.18;;;18.90;99.90;;;;;;5054505;28;20450;-73
2021/09/11 08:07:14;;;;;;;12.15;5.05;;;18.90;99.90;;;;;;5054778;28;20100;-75
2021/09/11 08:09:39;;;;;;;12.63;5.13;;;19.00;99.90;;;;;;5053020;28;20024;-74
2021/09/11 08:12:05;;;;;;;11.43;5.40;;;19.10;99.90;;;;;;5054348;28;20029;-75
2021/09/11 08:14:31;;;;;;;10.80;5.53;;;19.10;99.90;;;;;;5053177;28;20120;-75
2021/09/11 08:16:57;;;;;;;9.95;4.60;;;19.30;99.90;;;;;;5052946;28;20122;-75
2021/09/11 08:19:22;;;;;;;13.52;6.05;;;19.30;99.90;;;;;;5054382;28;20147;-75
2021/09/11 08:21:48;;;;;;;12.68;5.20;;;19.40;99.90;;;;;;5054453;28;20021;-75
2021/09/11 08:24:14;;;;;;;16.98;5.15;;;19.30;99.90;;;;;;5052837;28;20123;-75
2021/09/11 08:26:39;;;;;;;15.45;6.28;;;19.30;99.90;;;;;;5055249;28;20112;-75
2021/09/11 08:29:05;;;;;;;9.40;5.05;;;19.30;99.90;;;;;;5054068;28;20032;-75
2021/09/11 08:31:30;;;;;;;10.63;5.43;;;19.30;99.90;;;;;;5053958;28;20091;-75
2021/09/11 08:33:56;;;;;;;17.05;6.35;;;19.30;99.90;;;;;;5053927;28;20020;-75
2021/09/11 08:36:22;;;;;;;12.65;5.75;;;19.20;99.90;;;;;;5052502;28;20028;-75
2021/09/11 08:38:48;;;;;;;18.33;5.75;;;19.10;99.90;;;;;;5053795;28;20075;-75
2021/09/11 08:41:14;;;;;;;13.48;5.22;;;19.10;99.90;;;;;;5054021;28;20029;-73
2021/09/11 08:43:40;;;;;;;16.75;6.38;;;19.10;99.90;;;;;;5072767;22;20452;-73
2021/09/11 08:46:06;;;;;;;13.55;5.10;;;19.10;99.90;;;;;;5073987;28;20017;-74
2021/09/11 08:48:32;;;;;;;10.48;5.25;;;19.20;99.90;;;;;;5073745;28;20039;-75
2021/09/11 08:50:58;;;;;;;13.20;5.88;;;19.30;99.90;;;;;;5073801;28;20028;-75
2021/09/11 08:53:24;;;;;;;10.93;4.93;;;19.40;99.90;;;;;;5056092;28;20055;-75
2021/09/11 08:55:49;;;;;;;9.43;4.88;;;19.50;99.90;;;;;;5073759;28;20028;-75
2021/09/11 08:58:22;;;;;;;18.50;6.68;;;19.50;99.90;;;;;;5073574;28;20503;-75
2021/09/11 09:00:49;;;;;;;12.30;5.82;;;19.50;99.90;;;;;;5073838;28;20029;-75
2021/09/11 09:03:36;;;;;;;15.82;6.47;;;19.50;99.90;;;;;;5073533;28;20021;-74
2021/09/11 09:06:19;;;;;;;17.67;6.85;;;19.60;99.90;;;;;;5073440;28;20036;-75
2021/09/11 09:08:50;;;;;;;15.35;6.47;;;19.60;99.90;;;;;;5055476;28;20025;-74
2021/09/11 09:11:15;;;;;;;12.82;6.07;;;19.70;99.90;;;;;;5073197;28;20106;-75
2021/09/11 09:13:57;;;;;;;17.65;5.63;;;19.70;99.90;;;;;;5073492;28;20130;-73
2021/09/11 09:16:24;;;;;;;15.15;6.07;;;19.80;99.90;;;;;;5073661;28;20028;-75
2021/09/11 09:18:50;;;;;;;13.73;5.70;;;19.90;99.90;;;;;;5073550;28;20024;-75
2021/09/11 09:21:21;;;;;;;14.13;6.82;;;20.00;99.90;;;;;;5073128;28;20143;-75
2021/09/11 09:23:48;;;;;;;12.25;6.00;;;20.10;99.90;;;;;;5073284;28;20386;-75
2021/09/11 09:26:15;;;;;;;18.58;6.55;;;20.20;99.90;;;;;;5055135;28;20012;-75
2021/09/11 09:28:40;;;;;;;19.60;6.38;;;20.30;99.90;;;;;;5073205;28;20024;-75
2021/09/11 09:31:09;;;;;;;19.30;6.78;;;20.30;99.90;;;;;;5055145;28;20090;-75
2021/09/11 09:33:38;;;;;;;13.10;5.22;;;20.40;99.90;;;;;;5073620;28;20043;-75
2021/09/11 09:36:04;;;;;;;;;;;20.80;99.90;;;;;;5073469;28;20024;-75
2021/09/11 09:38:29;;;;;;;17.48;6.63;;;20.30;99.90;;;;;;5054989;28;20003;-75
2021/09/11 09:40:56;;;;;;;16.63;6.80;;;20.30;99.90;;;;;;5073037;28;20063;-75
2021/09/11 09:43:30;;;;;;;16.15;6.88;;;20.30;99.90;;;;;;5072873;28;20078;-75
2021/09/11 09:46:22;;;;;;;15.52;6.03;;;20.40;99.90;;;;;;5054936;28;20379;-75
2021/09/11 09:48:50;;;;;;;14.88;6.85;;;20.30;99.90;;;;;;5050076;28;20033;-75
2021/09/11 09:51:18;;;;;;;14.70;5.82;;;20.40;99.90;;;;;;5055061;28;20028;-76
2021/09/11 09:53:46;;;;;;;12.63;6.80;;;20.30;99.90;;;;;;5113984;22;20044;-74
2021/09/11 09:56:12;;;;;;;15.87;6.00;;;20.40;99.90;;;;;;5095225;28;20540;-75
2021/09/11 09:58:38;;;;;;;17.40;6.80;;;20.40;99.90;;;;;;5113417;28;20285;-75
2021/09/11 10:01:05;;;;;;;21.05;6.72;;;20.50;99.90;;;;;;5095302;28;20613;-76
2021/09/11 10:03:31;;;;;;;14.18;5.43;;;20.50;99.90;;;;;;5114094;28;20377;-76
2021/09/11 10:06:01;;;;;;;15.57;6.50;;;20.50;99.90;;;;;;5095211;28;20026;-75
2021/09/11 10:08:28;;;;;;;12.80;5.82;;;20.60;99.90;;;;;;5113952;28;20024;-76
2021/09/11 10:10:54;;;;;;;14.70;6.40;;;20.70;99.90;;;;;;5113510;28;20022;-76
2021/09/11 10:13:27;;;;;;;16.40;5.55;;;20.90;99.90;;;;;;5113290;28;20480;-76
2021/09/11 10:16:04;;;;;;;10.10;5.72;;;21.10;99.90;;;;;;5111950;28;20031;-76
2021/09/11 10:18:29;;;;;;;11.00;5.13;;;21.30;99.90;;;;;;5113565;28;20024;-76
2021/09/11 10:21:39;;;;;;;12.68;4.38;;;21.60;99.90;;;;;;5095096;28;20115;-77
2021/09/11 10:24:13;;;;;;;11.63;5.05;;;21.60;99.90;;;;;;5115688;28;20020;-76
2021/09/11 10:26:55;;;;;;;11.25;5.82;;;21.70;99.90;;;;;;5117232;28;20015;-74
2021/09/11 10:29:33;;;;;;;11.80;4.93;;;21.60;99.90;;;;;;5117629;28;20027;-75
2021/09/11 10:31:59;;;;;;;10.53;4.80;;;21.60;99.90;;;;;;5117239;28;20023;-73
2021/09/11 10:34:55;;;;;;;7.63;4.63;;;21.50;99.90;;;;;;5117061;28;20316;-73
2021/09/11 10:37:37;;;;;;;9.93;4.68;;;21.50;99.90;;;;;;5098594;28;20031;-75
2021/09/11 10:40:35;;;;;;;13.07;5.40;;;21.50;99.90;;;;;;5117382;28;20022;-73
2021/09/11 10:43:04;;;;;;;8.23;4.53;;;21.40;99.90;;;;;;5096853;28;20016;-73
2021/09/11 10:45:58;;;;;;;7.05;3.80;;;21.50;99.90;;;;;;5100030;28;20016;-73
2021/09/11 10:48:32;;;;;;;5.50;2.83;;;21.70;99.90;;;;;;5116764;28;20035;-73
2021/09/11 10:51:09;;;;;;;7.03;3.60;;;21.70;99.90;;;;;;5116473;28;20385;-73
2021/09/11 10:53:35;;;;;;;9.30;3.38;;;21.70;99.90;;;;;;5116711;28;20454;-76
2021/09/11 10:56:23;;;;;;;8.27;3.60;;;21.70;99.90;;;;;;5116392;28;20023;-76
2021/09/11 10:59:18;;;;;;;9.32;4.80;;;21.70;99.90;;;;;;5116390;28;20023;-73
2021/09/11 11:02:11;;;;;;;6.55;3.72;;;21.70;99.90;;;;;;5116201;28;20012;-76
2021/09/11 11:04:50;;;;;;;10.15;4.07;;;21.90;99.90;;;;;;5116191;28;20020;-75
2021/09/11 11:07:18;;;;;;;9.35;4.43;;;22.10;99.90;;;;;;5098873;28;20481;-73
2021/09/11 11:09:50;;;;;;;;;;;22.20;99.90;;;;;;5116578;28;20027;-73
2021/09/11 11:12:25;;;;;;;9.23;4.03;;;22.30;99.90;;;;;;5097842;28;19908;-73
2021/09/11 11:14:55;;;;;;;8.15;3.33;;;22.30;99.90;;;;;;5097812;28;20050;-73
2021/09/11 11:17:21;;;;;;;6.65;3.47;;;22.30;99.90;;;;;;5097750;28;20076;-73
2021/09/11 11:19:49;;;;;;;8.82;3.17;;;22.20;99.90;;;;;;5116658;28;20019;-73
2021/09/11 11:22:17;;;;;;;5.70;3.07;;;22.40;99.90;;;;;;5097788;28;20027;-75
2021/09/11 11:24:47;;;;;;;7.95;3.58;;;22.60;99.90;;;;;;5097969;28;20533;-75
2021/09/11 11:27:18;;;;;;;7.18;3.47;;;22.70;99.90;;;;;;5115976;28;20033;-75
2021/09/11 11:29:46;;;;;;;7.50;3.97;;;22.70;99.90;;;;;;5115805;28;20038;-77
2021/09/11 11:32:12;;;;;;;8.35;5.10;;;22.50;99.90;;;;;;5115920;28;20400;-75
2021/09/11 11:34:39;;;;;;;7.57;4.35;;;22.50;99.90;;;;;;5115036;28;20015;-73
2021/09/11 11:37:08;;;;;;;9.23;5.07;;;22.50;99.90;;;;;;5115693;28;20366;-75
2021/09/11 11:39:35;;;;;;;7.03;4.55;;;22.50;99.90;;;;;;5115924;28;20011;-73
2021/09/11 11:42:11;;;;;;;8.52;3.67;;;22.40;99.90;;;;;;5115589;28;20020;-74
2021/09/11 11:44:49;;;;;;;6.55;3.63;;;22.50;99.90;;;;;;5115538;28;20023;-73
2021/09/11 11:47:24;;;;;;;6.80;4.20;;;22.60;99.90;;;;;;5097245;28;20030;-75
2021/09/11 11:49:50;;;;;;;7.95;4.20;;;22.70;99.90;;;;;;5115410;28;20035;-73
2021/09/11 11:52:18;;;;;;;5.13;2.97;;;22.70;99.90;;;;;;5115898;28;20054;-75
2021/09/11 11:54:47;;;;;;;9.13;4.85;;;22.80;99.90;;;;;;5115163;28;20430;-76
2021/09/11 11:57:22;;;;;;;5.75;3.92;;;22.80;99.90;;;;;;5116756;28;20173;-77
2021/09/11 12:00:09;;;;;;;7.95;4.22;;;22.90;99.90;;;;;;5120646;28;20020;-76
2021/09/11 12:02:39;;;;;;;5.75;3.78;;;22.80;99.90;;;;;;5115287;28;20054;-75
2021/09/11 12:05:11;;;;;;;7.40;3.75;;;22.70;99.90;;;;;;5096876;28;20023;-73
2021/09/11 12:07:37;;;;;;;5.07;3.30;;;22.60;99.90;;;;;;5115052;28;20034;-73
2021/09/11 12:10:03;;;;;;;7.97;4.07;;;22.40;99.90;;;;;;5115094;28;20107;-73
2021/09/11 12:12:49;;;;;;;8.57;3.63;;;22.30;99.90;;;;;;5096601;28;20020;-73
2021/09/11 12:15:20;;;;;;;8.27;4.10;;;22.20;99.90;;;;;;5113699;22;20055;-76
2021/09/11 12:18:07;;;;;;;5.13;3.13;;;22.10;99.90;;;;;;5095435;28;20028;-74
2021/09/11 12:20:39;;;;;;;5.85;4.03;;;22.00;99.90;;;;;;5094826;28;20055;-77
2021/09/11 12:23:33;;;;;;;5.75;3.35;;;21.80;99.90;;;;;;5093925;28;20069;-78
2021/09/11 12:26:11;;;;;;;6.03;3.58;;;21.70;99.90;;;;;;5091558;28;20489;-76
2021/09/11 12:28:43;;;;;;;6.72;3.33;;;21.80;99.90;;;;;;5093790;28;20062;-75
2021/09/11 12:31:19;;;;;;;7.30;2.95;;;21.90;99.90;;;;;;5085040;28;20032;-77
2021/09/11 12:33:55;;;;;;;4.18;2.80;;;22.00;99.90;;;;;;5074010;28;20367;-76
2021/09/11 12:36:39;;;;;;;7.13;2.50;;;22.10;99.90;;;;;;5072845;28;20017;-74
2021/09/11 12:39:26;;;;;;;8.27;3.25;;;22.00;99.90;;;;;;5074243;28;20029;-74
2021/09/11 12:41:53;;;;;;;6.20;2.70;;;21.80;99.90;;;;;;5074320;28;20024;-74
2021/09/11 12:44:20;;;;;;;1.87;0.77;;;21.60;99.90;;;;;;5072610;28;20052;-75